sensor_id;sensor_type;location;lat;lon;timestamp;P1;durP1;ratioP1;P2;durP2;ratioP2
37239;SDS011;23130;48.760;9.178;2022-07-22T00:01:12;9.43;;;6.30;;
37239;SDS011;23130;48.760;9.178;2022-07-22T00:03:38;9.88;;;6.80;;
37239;SDS011;23130;48.760;9.178;2022-07-22T00:06:04;7.30;;;6.03;;
37239;SDS011;23130;48.760;9.178;2022-07-22T00:08:29;10.55;;;6.90;;
37239;SDS011;23130;48.760;9.178;2022-07-22T00:10:55;8.55;;;5.35;;
37239;SDS011;23130;48.760;9.178;2022-07-22T00:13:20;7.28;;;5.65;;
37239;SDS011;23130;48.760;9.178;2022-07-22T00:15:46;7.70;;;6.03;;
37239;SDS011;23130;48.760;9.178;2022-07-22T00:18:12;7.07;;;5.93;;
37239;SDS011;23130;48.760;9.178;2022-07-22T00:20:37;6.97;;;5.55;;
37239;SDS011;23130;48.760;9.178;2022-07-22T00:23:03;6.18;;;5.50;;
37239;SDS011;23130;48.760;9.178;2022-07-22T00:25:28;9.35;;;6.93;;
37239;SDS011;23130;48.760;9.178;2022-07-22T00:27:54;6.68;;;5.20;;
37239;SDS011;23130;48.760;9.178;2022-07-22T00:30:20;6.40;;;5.35;;
37239;SDS011;23130;48.760;9.178;2022-07-22T00:32:46;6.90;;;5.88;;
37239;SDS011;23130;48.760;9.178;2022-07-22T00:35:11;7.68;;;5.95;;
37239;SDS011;23130;48.760;9.178;2022-07-22T00:37:37;7.38;;;5.78;;
37239;SDS011;23130;48.760;9.178;2022-07-22T00:40:03;6.10;;;5.50;;
37239;SDS011;23130;48.760;9.178;2022-07-22T00:42:29;5.82;;;5.15;;
37239;SDS011;23130;48.760;9.178;2022-07-22T00:44:55;12.05;;;6.28;;
37239;SDS011;23130;48.760;9.178;2022-07-22T00:47:21;7.15;;;5.75;;
37239;SDS011;23130;48.760;9.178;2022-07-22T00:49:46;7.70;;;5.70;;
37239;SDS011;23130;48.760;9.178;2022-07-22T00:52:12;8.02;;;6.18;;
37239;SDS011;23130;48.760;9.178;2022-07-22T00:54:37;6.95;;;5.47;;
37239;SDS011;23130;48.760;9.178;2022-07-22T00:57:04;7.50;;;6.30;;
37239;SDS011;23130;48.760;9.178;2022-07-22T00:59:29;7.20;;;6.50;;
37239;SDS011;23130;48.760;9.178;2022-07-22T01:01:55;7.93;;;6.10;;
37239;SDS011;23130;48.760;9.178;2022-07-22T01:04:21;10.40;;;6.28;;
37239;SDS011;23130;48.760;9.178;2022-07-22T01:06:47;8.65;;;5.80;;
37239;SDS011;23130;48.760;9.178;2022-07-22T01:09:12;7.03;;;5.57;;
37239;SDS011;23130;48.760;9.178;2022-07-22T01:11:39;12.18;;;7.20;;
37239;SDS011;23130;48.760;9.178;2022-07-22T01:14:05;8.27;;;6.28;;
37239;SDS011;23130;48.760;9.178;2022-07-22T01:16:30;8.57;;;6.63;;
37239;SDS011;23130;48.760;9.178;2022-07-22T01:18:56;8.82;;;6.50;;
37239;SDS011;23130;48.760;9.178;2022-07-22T01:21:22;7.63;;;6.10;;
37239;SDS011;23130;48.760;9.178;2022-07-22T01:23:48;10.25;;;6.38;;
37239;SDS011;23130;48.760;9.178;2022-07-22T01:26:14;6.68;;;5.75;;
37239;SDS011;23130;48.760;9.178;2022-07-22T01:28:40;7.30;;;6.60;;
37239;SDS011;23130;48.760;9.178;2022-07-22T01:31:06;8.43;;;6.80;;
37239;SDS011;23130;48.760;9.178;2022-07-22T01:33:32;6.95;;;6.13;;
37239;SDS011;23130;48.760;9.178;2022-07-22T01:35:58;7.72;;;6.22;;
37239;SDS011;23130;48.760;9.178;2022-07-22T01:38:24;9.43;;;6.85;;
37239;SDS011;23130;48.760;9.178;2022-07-22T01:40:50;8.55;;;6.65;;
37239;SDS011;23130;48.760;9.178;2022-07-22T01:43:15;7.75;;;6.28;;
37239;SDS011;23130;48.760;9.178;2022-07-22T01:45:43;6.80;;;5.95;;
37239;SDS011;23130;48.760;9.178;2022-07-22T01:48:10;8.48;;;6.32;;
37239;SDS011;23130;48.760;9.178;2022-07-22T01:50:35;7.47;;;6.22;;
37239;SDS011;23130;48.760;9.178;2022-07-22T01:53:01;7.82;;;6.55;;
37239;SDS011;23130;48.760;9.178;2022-07-22T01:55:27;9.95;;;6.53;;
37239;SDS011;23130;48.760;9.178;2022-07-22T01:57:53;9.40;;;7.30;;
37239;SDS011;23130;48.760;9.178;2022-07-22T02:00:18;8.80;;;6.38;;
37239;SDS011;23130;48.760;9.178;2022-07-22T02:02:44;8.30;;;6.80;;
37239;SDS011;23130;48.760;9.178;2022-07-22T02:05:10;9.10;;;7.25;;
37239;SDS011;23130;48.760;9.178;2022-07-22T02:07:36;8.25;;;6.97;;
37239;SDS011;23130;48.760;9.178;2022-07-22T02:10:01;9.02;;;7.40;;
37239;SDS011;23130;48.760;9.178;2022-07-22T02:12:27;9.80;;;7.57;;
37239;SDS011;23130;48.760;9.178;2022-07-22T02:14:53;10.63;;;7.55;;
37239;SDS011;23130;48.760;9.178;2022-07-22T02:17:18;9.60;;;7.35;;
37239;SDS011;23130;48.760;9.178;2022-07-22T02:19:45;8.23;;;6.80;;
37239;SDS011;23130;48.760;9.178;2022-07-22T02:22:10;10.15;;;7.70;;
37239;SDS011;23130;48.760;9.178;2022-07-22T02:24:36;9.55;;;6.95;;
37239;SDS011;23130;48.760;9.178;2022-07-22T02:27:02;8.30;;;7.03;;
37239;SDS011;23130;48.760;9.178;2022-07-22T02:29:28;8.07;;;6.80;;
37239;SDS011;23130;48.760;9.178;2022-07-22T02:31:54;8.10;;;7.30;;
37239;SDS011;23130;48.760;9.178;2022-07-22T02:34:20;10.98;;;7.90;;
37239;SDS011;23130;48.760;9.178;2022-07-22T02:36:45;9.15;;;7.75;;
37239;SDS011;23130;48.760;9.178;2022-07-22T02:39:11;9.45;;;8.45;;
37239;SDS011;23130;48.760;9.178;2022-07-22T02:41:37;9.88;;;8.27;;
37239;SDS011;23130;48.760;9.178;2022-07-22T02:44:03;10.88;;;8.52;;
37239;SDS011;23130;48.760;9.178;2022-07-22T02:46:28;10.13;;;7.97;;
37239;SDS011;23130;48.760;9.178;2022-07-22T02:48:54;12.57;;;7.93;;
37239;SDS011;23130;48.760;9.178;2022-07-22T02:51:20;11.40;;;8.68;;
37239;SDS011;23130;48.760;9.178;2022-07-22T02:53:46;10.77;;;9.57;;
37239;SDS011;23130;48.760;9.178;2022-07-22T02:56:13;12.07;;;8.35;;
37239;SDS011;23130;48.760;9.178;2022-07-22T02:58:39;10.63;;;9.18;;
37239;SDS011;23130;48.760;9.178;2022-07-22T03:01:05;10.18;;;8.90;;
37239;SDS011;23130;48.760;9.178;2022-07-22T03:03:31;10.25;;;8.93;;
37239;SDS011;23130;48.760;9.178;2022-07-22T03:05:57;12.77;;;8.70;;
37239;SDS011;23130;48.760;9.178;2022-07-22T03:08:22;9.23;;;8.27;;
37239;SDS011;23130;48.760;9.178;2022-07-22T03:10:48;11.90;;;9.30;;
37239;SDS011;23130;48.760;9.178;2022-07-22T03:13:14;12.80;;;9.45;;
37239;SDS011;23130;48.760;9.178;2022-07-22T03:15:39;15.15;;;9.65;;
37239;SDS011;23130;48.760;9.178;2022-07-22T03:18:05;13.48;;;8.90;;
37239;SDS011;23130;48.760;9.178;2022-07-22T03:20:31;10.55;;;8.98;;
37239;SDS011;23130;48.760;9.178;2022-07-22T03:22:58;14.60;;;10.05;;
37239;SDS011;23130;48.760;9.178;2022-07-22T03:25:23;10.63;;;9.10;;
37239;SDS011;23130;48.760;9.178;2022-07-22T03:27:49;9.43;;;7.72;;
37239;SDS011;23130;48.760;9.178;2022-07-22T03:30:15;12.57;;;9.18;;
37239;SDS011;23130;48.760;9.178;2022-07-22T03:32:41;10.88;;;9.30;;
37239;SDS011;23130;48.760;9.178;2022-07-22T03:35:14;12.10;;;9.02;;
37239;SDS011;23130;48.760;9.178;2022-07-22T03:37:40;10.27;;;9.25;;
37239;SDS011;23130;48.760;9.178;2022-07-22T03:40:05;12.52;;;10.18;;
37239;SDS011;23130;48.760;9.178;2022-07-22T03:42:32;13.02;;;10.27;;
37239;SDS011;23130;48.760;9.178;2022-07-22T03:44:58;15.23;;;11.15;;
37239;SDS011;23130;48.760;9.178;2022-07-22T03:47:23;13.73;;;10.02;;
37239;SDS011;23130;48.760;9.178;2022-07-22T03:49:49;12.68;;;9.50;;
37239;SDS011;23130;48.760;9.178;2022-07-22T03:52:15;11.57;;;9.65;;
37239;SDS011;23130;48.760;9.178;2022-07-22T03:54:41;13.90;;;11.15;;
37239;SDS011;23130;48.760;9.178;2022-07-22T03:57:07;15.13;;;10.77;;
37239;SDS011;23130;48.760;9.178;2022-07-22T03:59:33;15.13;;;12.18;;
37239;SDS011;23130;48.760;9.178;2022-07-22T04:02:00;14.70;;;10.82;;
37239;SDS011;23130;48.760;9.178;2022-07-22T04:04:26;14.13;;;11.43;;
37239;SDS011;23130;48.760;9.178;2022-07-22T04:06:51;12.88;;;10.05;;
37239;SDS011;23130;48.760;9.178;2022-07-22T04:09:17;12.82;;;9.77;;
37239;SDS011;23130;48.760;9.178;2022-07-22T04:11:44;12.02;;;9.90;;
37239;SDS011;23130;48.760;9.178;2022-07-22T04:14:09;12.73;;;9.35;;
37239;SDS011;23130;48.760;9.178;2022-07-22T04:16:35;15.15;;;9.68;;
37239;SDS011;23130;48.760;9.178;2022-07-22T04:19:01;11.63;;;9.68;;
37239;SDS011;23130;48.760;9.178;2022-07-22T04:21:27;13.00;;;9.93;;
37239;SDS011;23130;48.760;9.178;2022-07-22T04:23:53;12.43;;;10.50;;
37239;SDS011;23130;48.760;9.178;2022-07-22T04:26:19;13.52;;;11.23;;
37239;SDS011;23130;48.760;9.178;2022-07-22T04:28:44;12.13;;;9.40;;
37239;SDS011;23130;48.760;9.178;2022-07-22T04:31:10;11.35;;;10.18;;
37239;SDS011;23130;48.760;9.178;2022-07-22T04:33:38;13.50;;;9.95;;
37239;SDS011;23130;48.760;9.178;2022-07-22T04:36:03;11.30;;;9.55;;
37239;SDS011;23130;48.760;9.178;2022-07-22T04:38:29;13.75;;;9.68;;
37239;SDS011;23130;48.760;9.178;2022-07-22T04:40:55;14.63;;;10.65;;
37239;SDS011;23130;48.760;9.178;2022-07-22T04:43:21;12.40;;;9.10;;
37239;SDS011;23130;48.760;9.178;2022-07-22T04:45:46;10.75;;;9.40;;
37239;SDS011;23130;48.760;9.178;2022-07-22T04:48:12;8.95;;;8.02;;
37239;SDS011;23130;48.760;9.178;2022-07-22T04:50:38;9.30;;;8.25;;
37239;SDS011;23130;48.760;9.178;2022-07-22T04:53:03;10.80;;;8.23;;
37239;SDS011;23130;48.760;9.178;2022-07-22T04:55:29;9.02;;;7.53;;
37239;SDS011;23130;48.760;9.178;2022-07-22T04:57:55;14.57;;;8.20;;
37239;SDS011;23130;48.760;9.178;2022-07-22T05:00:20;8.80;;;7.65;;
37239;SDS011;23130;48.760;9.178;2022-07-22T05:02:46;8.77;;;7.85;;
37239;SDS011;23130;48.760;9.178;2022-07-22T05:05:12;13.13;;;7.82;;
37239;SDS011;23130;48.760;9.178;2022-07-22T05:07:38;9.70;;;8.70;;
37239;SDS011;23130;48.760;9.178;2022-07-22T05:10:04;10.23;;;7.85;;
37239;SDS011;23130;48.760;9.178;2022-07-22T05:12:30;11.00;;;8.00;;
37239;SDS011;23130;48.760;9.178;2022-07-22T05:14:56;8.88;;;7.97;;
37239;SDS011;23130;48.760;9.178;2022-07-22T05:17:21;8.02;;;7.22;;
37239;SDS011;23130;48.760;9.178;2022-07-22T05:19:47;9.82;;;8.23;;
37239;SDS011;23130;48.760;9.178;2022-07-22T05:22:12;9.23;;;8.27;;
37239;SDS011;23130;48.760;9.178;2022-07-22T05:24:38;10.15;;;8.30;;
37239;SDS011;23130;48.760;9.178;2022-07-22T05:27:04;8.70;;;7.85;;
37239;SDS011;23130;48.760;9.178;2022-07-22T05:29:29;13.40;;;8.32;;
37239;SDS011;23130;48.760;9.178;2022-07-22T05:31:55;12.40;;;9.18;;
37239;SDS011;23130;48.760;9.178;2022-07-22T05:34:20;8.15;;;7.35;;
37239;SDS011;23130;48.760;9.178;2022-07-22T05:36:46;12.23;;;8.82;;
37239;SDS011;23130;48.760;9.178;2022-07-22T05:39:11;8.95;;;7.57;;
37239;SDS011;23130;48.760;9.178;2022-07-22T05:41:37;10.32;;;8.50;;
37239;SDS011;23130;48.760;9.178;2022-07-22T05:44:03;11.02;;;9.52;;
37239;SDS011;23130;48.760;9.178;2022-07-22T05:46:29;10.23;;;8.88;;
37239;SDS011;23130;48.760;9.178;2022-07-22T05:48:55;11.60;;;8.30;;
37239;SDS011;23130;48.760;9.178;2022-07-22T05:51:20;10.23;;;8.48;;
37239;SDS011;23130;48.760;9.178;2022-07-22T05:53:46;11.93;;;8.43;;
37239;SDS011;23130;48.760;9.178;2022-07-22T05:56:11;12.60;;;8.45;;
37239;SDS011;23130;48.760;9.178;2022-07-22T05:58:38;11.43;;;8.65;;
37239;SDS011;23130;48.760;9.178;2022-07-22T06:01:04;11.48;;;9.25;;
37239;SDS011;23130;48.760;9.178;2022-07-22T06:03:30;9.63;;;8.48;;
37239;SDS011;23130;48.760;9.178;2022-07-22T06:05:56;10.95;;;8.13;;
37239;SDS011;23130;48.760;9.178;2022-07-22T06:08:22;13.23;;;9.40;;
37239;SDS011;23130;48.760;9.178;2022-07-22T06:10:47;12.77;;;8.82;;
37239;SDS011;23130;48.760;9.178;2022-07-22T06:13:13;11.52;;;9.48;;
37239;SDS011;23130;48.760;9.178;2022-07-22T06:15:38;9.48;;;8.57;;
37239;SDS011;23130;48.760;9.178;2022-07-22T06:18:04;13.40;;;8.75;;
37239;SDS011;23130;48.760;9.178;2022-07-22T06:20:30;10.25;;;8.65;;
37239;SDS011;23130;48.760;9.178;2022-07-22T06:22:55;11.68;;;8.90;;
37239;SDS011;23130;48.760;9.178;2022-07-22T06:25:21;11.15;;;9.48;;
37239;SDS011;23130;48.760;9.178;2022-07-22T06:27:47;10.10;;;8.90;;
37239;SDS011;23130;48.760;9.178;2022-07-22T06:30:12;9.70;;;8.68;;
37239;SDS011;23130;48.760;9.178;2022-07-22T06:32:38;10.18;;;9.27;;
37239;SDS011;23130;48.760;9.178;2022-07-22T06:35:04;11.43;;;8.57;;
37239;SDS011;23130;48.760;9.178;2022-07-22T06:37:30;10.00;;;9.05;;
37239;SDS011;23130;48.760;9.178;2022-07-22T06:39:55;10.27;;;8.82;;
37239;SDS011;23130;48.760;9.178;2022-07-22T06:42:21;12.93;;;9.02;;
37239;SDS011;23130;48.760;9.178;2022-07-22T06:44:47;11.32;;;9.43;;
37239;SDS011;23130;48.760;9.178;2022-07-22T06:47:13;10.13;;;8.57;;
37239;SDS011;23130;48.760;9.178;2022-07-22T06:49:39;9.50;;;8.60;;
37239;SDS011;23130;48.760;9.178;2022-07-22T06:52:04;10.25;;;8.85;;
37239;SDS011;23130;48.760;9.178;2022-07-22T06:54:30;11.25;;;10.13;;
37239;SDS011;23130;48.760;9.178;2022-07-22T06:56:55;9.60;;;8.60;;
37239;SDS011;23130;48.760;9.178;2022-07-22T06:59:22;9.98;;;8.40;;
37239;SDS011;23130;48.760;9.178;2022-07-22T07:01:48;9.38;;;8.48;;
37239;SDS011;23130;48.760;9.178;2022-07-22T07:04:14;9.10;;;8.20;;
37239;SDS011;23130;48.760;9.178;2022-07-22T07:06:40;9.15;;;8.25;;
37239;SDS011;23130;48.760;9.178;2022-07-22T07:09:06;11.13;;;9.90;;
37239;SDS011;23130;48.760;9.178;2022-07-22T07:11:32;10.98;;;8.00;;
37239;SDS011;23130;48.760;9.178;2022-07-22T07:13:58;11.38;;;8.85;;
37239;SDS011;23130;48.760;9.178;2022-07-22T07:16:24;10.20;;;8.82;;
37239;SDS011;23130;48.760;9.178;2022-07-22T07:18:49;9.00;;;8.00;;
37239;SDS011;23130;48.760;9.178;2022-07-22T07:21:15;9.88;;;8.88;;
37239;SDS011;23130;48.760;9.178;2022-07-22T07:23:40;10.85;;;8.82;;
37239;SDS011;23130;48.760;9.178;2022-07-22T07:26:06;9.48;;;8.48;;
37239;SDS011;23130;48.760;9.178;2022-07-22T07:28:32;8.82;;;7.95;;
37239;SDS011;23130;48.760;9.178;2022-07-22T07:30:57;10.38;;;9.25;;
37239;SDS011;23130;48.760;9.178;2022-07-22T07:33:23;9.52;;;8.63;;
37239;SDS011;23130;48.760;9.178;2022-07-22T07:35:48;10.30;;;8.68;;
37239;SDS011;23130;48.760;9.178;2022-07-22T07:38:14;13.00;;;9.85;;
37239;SDS011;23130;48.760;9.178;2022-07-22T07:40:40;10.50;;;8.70;;
37239;SDS011;23130;48.760;9.178;2022-07-22T07:43:06;11.25;;;8.80;;
37239;SDS011;23130;48.760;9.178;2022-07-22T07:45:31;11.30;;;10.10;;
37239;SDS011;23130;48.760;9.178;2022-07-22T07:47:57;12.45;;;9.07;;
37239;SDS011;23130;48.760;9.178;2022-07-22T07:50:25;10.27;;;8.63;;
37239;SDS011;23130;48.760;9.178;2022-07-22T07:52:50;10.45;;;8.88;;
37239;SDS011;23130;48.760;9.178;2022-07-22T07:55:16;9.95;;;9.05;;
37239;SDS011;23130;48.760;9.178;2022-07-22T07:57:42;13.27;;;10.82;;
37239;SDS011;23130;48.760;9.178;2022-07-22T08:00:10;10.05;;;9.05;;
37239;SDS011;23130;48.760;9.178;2022-07-22T08:02:36;9.98;;;9.00;;
37239;SDS011;23130;48.760;9.178;2022-07-22T08:05:03;13.60;;;9.85;;
37239;SDS011;23130;48.760;9.178;2022-07-22T08:07:29;10.98;;;9.88;;
37239;SDS011;23130;48.760;9.178;2022-07-22T08:09:54;12.15;;;10.45;;
37239;SDS011;23130;48.760;9.178;2022-07-22T08:12:20;10.13;;;8.98;;
37239;SDS011;23130;48.760;9.178;2022-07-22T08:14:45;13.98;;;8.98;;
37239;SDS011;23130;48.760;9.178;2022-07-22T08:17:11;10.98;;;8.35;;
37239;SDS011;23130;48.760;9.178;2022-07-22T08:19:36;9.68;;;8.20;;
37239;SDS011;23130;48.760;9.178;2022-07-22T08:22:02;10.25;;;8.70;;
37239;SDS011;23130;48.760;9.178;2022-07-22T08:24:28;10.32;;;8.23;;
37239;SDS011;23130;48.760;9.178;2022-07-22T08:26:53;10.50;;;9.40;;
37239;SDS011;23130;48.760;9.178;2022-07-22T08:29:19;11.30;;;9.40;;
37239;SDS011;23130;48.760;9.178;2022-07-22T08:31:44;12.93;;;10.18;;
37239;SDS011;23130;48.760;9.178;2022-07-22T08:34:10;11.13;;;8.85;;
37239;SDS011;23130;48.760;9.178;2022-07-22T08:36:36;15.13;;;11.30;;
37239;SDS011;23130;48.760;9.178;2022-07-22T08:39:01;10.73;;;9.63;;
37239;SDS011;23130;48.760;9.178;2022-07-22T08:41:27;12.70;;;10.07;;
37239;SDS011;23130;48.760;9.178;2022-07-22T08:43:58;11.00;;;9.98;;
37239;SDS011;23130;48.760;9.178;2022-07-22T08:46:24;10.73;;;9.68;;
37239;SDS011;23130;48.760;9.178;2022-07-22T08:48:49;12.50;;;9.57;;
37239;SDS011;23130;48.760;9.178;2022-07-22T08:51:15;14.80;;;10.25;;
37239;SDS011;23130;48.760;9.178;2022-07-22T08:53:40;11.43;;;9.07;;
37239;SDS011;23130;48.760;9.178;2022-07-22T08:56:06;12.93;;;10.05;;
37239;SDS011;23130;48.760;9.178;2022-07-22T08:58:32;13.82;;;10.98;;
37239;SDS011;23130;48.760;9.178;2022-07-22T09:01:11;11.40;;;10.20;;
37239;SDS011;23130;48.760;9.178;2022-07-22T09:03:51;12.60;;;10.05;;
37239;SDS011;23130;48.760;9.178;2022-07-22T09:06:20;12.70;;;10.73;;
37239;SDS011;23130;48.760;9.178;2022-07-22T09:08:57;12.75;;;10.25;;
37239;SDS011;23130;48.760;9.178;2022-07-22T09:11:29;12.93;;;8.98;;
37239;SDS011;23130;48.760;9.178;2022-07-22T09:13:57;11.55;;;8.85;;
37239;SDS011;23130;48.760;9.178;2022-07-22T09:19:12;12.95;;;10.52;;
37239;SDS011;23130;48.760;9.178;2022-07-22T09:21:43;12.73;;;9.82;;
37239;SDS011;23130;48.760;9.178;2022-07-22T09:24:31;9.52;;;8.07;;
37239;SDS011;23130;48.760;9.178;2022-07-22T09:26:59;11.05;;;8.73;;
37239;SDS011;23130;48.760;9.178;2022-07-22T09:29:24;13.02;;;10.07;;
37239;SDS011;23130;48.760;9.178;2022-07-22T09:31:50;11.52;;;9.88;;
37239;SDS011;23130;48.760;9.178;2022-07-22T09:34:27;13.43;;;11.13;;
37239;SDS011;23130;48.760;9.178;2022-07-22T09:36:58;15.45;;;9.52;;
37239;SDS011;23130;48.760;9.178;2022-07-22T09:39:24;12.77;;;9.48;;
37239;SDS011;23130;48.760;9.178;2022-07-22T09:41:58;13.20;;;8.85;;
37239;SDS011;23130;48.760;9.178;2022-07-22T09:44:25;9.23;;;6.95;;
37239;SDS011;23130;48.760;9.178;2022-07-22T09:46:51;8.32;;;6.95;;
37239;SDS011;23130;48.760;9.178;2022-07-22T09:52:02;11.30;;;9.60;;
37239;SDS011;23130;48.760;9.178;2022-07-22T09:54:28;10.10;;;9.07;;
37239;SDS011;23130;48.760;9.178;2022-07-22T09:56:55;11.52;;;8.60;;
37239;SDS011;23130;48.760;9.178;2022-07-22T09:59:21;10.45;;;8.82;;
37239;SDS011;23130;48.760;9.178;2022-07-22T10:01:47;11.13;;;9.30;;
37239;SDS011;23130;48.760;9.178;2022-07-22T10:04:16;11.82;;;8.80;;
37239;SDS011;23130;48.760;9.178;2022-07-22T10:06:44;11.30;;;8.85;;
37239;SDS011;23130;48.760;9.178;2022-07-22T10:09:12;8.80;;;7.80;;
37239;SDS011;23130;48.760;9.178;2022-07-22T10:11:41;10.07;;;7.93;;
37239;SDS011;23130;48.760;9.178;2022-07-22T10:14:13;10.00;;;8.27;;
37239;SDS011;23130;48.760;9.178;2022-07-22T10:16:48;11.68;;;8.98;;
37239;SDS011;23130;48.760;9.178;2022-07-22T10:19:15;9.10;;;8.20;;
37239;SDS011;23130;48.760;9.178;2022-07-22T10:21:41;9.02;;;7.85;;
37239;SDS011;23130;48.760;9.178;2022-07-22T10:24:09;12.10;;;8.45;;
37239;SDS011;23130;48.760;9.178;2022-07-22T10:29:29;9.88;;;7.45;;
37239;SDS011;23130;48.760;9.178;2022-07-22T10:32:26;14.93;;;8.05;;
37239;SDS011;23130;48.760;9.178;2022-07-22T10:40:15;11.50;;;9.27;;
37239;SDS011;23130;48.760;9.178;2022-07-22T10:45:27;9.95;;;8.48;;
37239;SDS011;23130;48.760;9.178;2022-07-22T10:47:55;8.85;;;7.93;;
37239;SDS011;23130;48.760;9.178;2022-07-22T10:53:03;10.30;;;7.60;;
37239;SDS011;23130;48.760;9.178;2022-07-22T10:55:30;8.27;;;7.43;;
37239;SDS011;23130;48.760;9.178;2022-07-22T10:57:55;7.85;;;6.82;;
37239;SDS011;23130;48.760;9.178;2022-07-22T11:00:21;9.65;;;7.93;;
37239;SDS011;23130;48.760;9.178;2022-07-22T11:02:47;9.18;;;7.47;;
37239;SDS011;23130;48.760;9.178;2022-07-22T11:05:13;9.32;;;6.95;;
37239;SDS011;23130;48.760;9.178;2022-07-22T11:07:46;9.70;;;8.23;;
37239;SDS011;23130;48.760;9.178;2022-07-22T11:10:12;9.02;;;7.88;;
37239;SDS011;23130;48.760;9.178;2022-07-22T11:12:39;11.73;;;8.23;;
37239;SDS011;23130;48.760;9.178;2022-07-22T11:15:06;9.57;;;7.53;;
37239;SDS011;23130;48.760;9.178;2022-07-22T11:17:32;16.17;;;7.93;;
37239;SDS011;23130;48.760;9.178;2022-07-22T11:20:05;8.07;;;7.00;;
37239;SDS011;23130;48.760;9.178;2022-07-22T11:22:32;8.68;;;6.93;;
37239;SDS011;23130;48.760;9.178;2022-07-22T11:24:59;7.72;;;6.43;;
37239;SDS011;23130;48.760;9.178;2022-07-22T11:27:27;7.63;;;6.93;;
37239;SDS011;23130;48.760;9.178;2022-07-22T11:29:53;8.77;;;6.78;;
37239;SDS011;23130;48.760;9.178;2022-07-22T11:32:23;7.15;;;6.35;;
37239;SDS011;23130;48.760;9.178;2022-07-22T11:34:50;6.70;;;6.00;;
37239;SDS011;23130;48.760;9.178;2022-07-22T11:37:16;11.48;;;6.90;;
37239;SDS011;23130;48.760;9.178;2022-07-22T11:39:44;10.30;;;6.10;;
37239;SDS011;23130;48.760;9.178;2022-07-22T11:42:09;7.60;;;6.78;;
37239;SDS011;23130;48.760;9.178;2022-07-22T11:44:36;7.25;;;6.55;;
37239;SDS011;23130;48.760;9.178;2022-07-22T11:47:03;7.15;;;6.43;;
37239;SDS011;23130;48.760;9.178;2022-07-22T11:49:31;7.18;;;6.47;;
37239;SDS011;23130;48.760;9.178;2022-07-22T11:51:59;7.63;;;6.85;;
37239;SDS011;23130;48.760;9.178;2022-07-22T11:54:24;9.57;;;6.55;;
37239;SDS011;23130;48.760;9.178;2022-07-22T11:56:50;6.32;;;5.75;;
37239;SDS011;23130;48.760;9.178;2022-07-22T11:59:16;8.77;;;6.78;;
37239;SDS011;23130;48.760;9.178;2022-07-22T12:01:43;8.32;;;6.63;;
37239;SDS011;23130;48.760;9.178;2022-07-22T12:04:11;9.25;;;6.80;;
37239;SDS011;23130;48.760;9.178;2022-07-22T12:06:39;6.25;;;5.40;;
37239;SDS011;23130;48.760;9.178;2022-07-22T12:09:10;6.35;;;5.75;;
37239;SDS011;23130;48.760;9.178;2022-07-22T12:11:39;7.85;;;5.57;;
37239;SDS011;23130;48.760;9.178;2022-07-22T12:14:09;8.18;;;5.50;;
37239;SDS011;23130;48.760;9.178;2022-07-22T12:16:43;6.65;;;5.95;;
37239;SDS011;23130;48.760;9.178;2022-07-22T12:19:18;7.18;;;5.72;;
37239;SDS011;23130;48.760;9.178;2022-07-22T12:21:51;7.22;;;5.75;;
37239;SDS011;23130;48.760;9.178;2022-07-22T12:27:03;6.75;;;5.80;;
37239;SDS011;23130;48.760;9.178;2022-07-22T12:29:41;9.88;;;5.90;;
37239;SDS011;23130;48.760;9.178;2022-07-22T12:32:17;6.57;;;5.68;;
37239;SDS011;23130;48.760;9.178;2022-07-22T12:37:47;5.80;;;5.20;;
37239;SDS011;23130;48.760;9.178;2022-07-22T12:42:45;7.43;;;6.15;;
37239;SDS011;23130;48.760;9.178;2022-07-22T12:45:18;6.20;;;5.60;;
37239;SDS011;23130;48.760;9.178;2022-07-22T12:47:53;7.18;;;5.53;;
37239;SDS011;23130;48.760;9.178;2022-07-22T12:50:22;6.60;;;6.00;;
37239;SDS011;23130;48.760;9.178;2022-07-22T12:53:16;6.60;;;6.00;;
37239;SDS011;23130;48.760;9.178;2022-07-22T12:55:43;7.43;;;6.68;;
37239;SDS011;23130;48.760;9.178;2022-07-22T12:58:20;7.25;;;6.55;;
37239;SDS011;23130;48.760;9.178;2022-07-22T13:00:50;8.68;;;6.95;;
37239;SDS011;23130;48.760;9.178;2022-07-22T13:03:19;6.93;;;6.25;;
37239;SDS011;23130;48.760;9.178;2022-07-22T13:05:50;6.18;;;5.13;;
37239;SDS011;23130;48.760;9.178;2022-07-22T13:08:17;7.30;;;5.75;;
37239;SDS011;23130;48.760;9.178;2022-07-22T13:10:43;5.78;;;5.18;;
37239;SDS011;23130;48.760;9.178;2022-07-22T13:13:08;7.57;;;5.63;;
37239;SDS011;23130;48.760;9.178;2022-07-22T13:15:34;6.22;;;5.68;;
37239;SDS011;23130;48.760;9.178;2022-07-22T13:18:00;6.93;;;5.50;;
37239;SDS011;23130;48.760;9.178;2022-07-22T13:20:26;6.75;;;5.43;;
37239;SDS011;23130;48.760;9.178;2022-07-22T13:22:51;5.88;;;5.30;;
37239;SDS011;23130;48.760;9.178;2022-07-22T13:25:17;6.20;;;5.60;;
37239;SDS011;23130;48.760;9.178;2022-07-22T13:27:43;6.82;;;5.63;;
37239;SDS011;23130;48.760;9.178;2022-07-22T13:30:09;5.75;;;5.25;;
37239;SDS011;23130;48.760;9.178;2022-07-22T13:32:35;6.07;;;5.47;;
37239;SDS011;23130;48.760;9.178;2022-07-22T13:35:00;6.38;;;5.30;;
37239;SDS011;23130;48.760;9.178;2022-07-22T13:37:27;9.98;;;5.93;;
37239;SDS011;23130;48.760;9.178;2022-07-22T13:39:52;6.88;;;6.05;;
37239;SDS011;23130;48.760;9.178;2022-07-22T13:42:18;6.00;;;5.50;;
37239;SDS011;23130;48.760;9.178;2022-07-22T13:44:47;5.93;;;5.32;;
37239;SDS011;23130;48.760;9.178;2022-07-22T13:47:14;6.63;;;5.88;;
37239;SDS011;23130;48.760;9.178;2022-07-22T13:49:40;6.68;;;5.47;;
37239;SDS011;23130;48.760;9.178;2022-07-22T13:52:06;5.22;;;4.82;;
37239;SDS011;23130;48.760;9.178;2022-07-22T13:54:32;5.65;;;4.97;;
37239;SDS011;23130;48.760;9.178;2022-07-22T13:56:58;7.28;;;5.15;;
37239;SDS011;23130;48.760;9.178;2022-07-22T13:59:25;5.70;;;5.03;;
37239;SDS011;23130;48.760;9.178;2022-07-22T14:01:51;5.65;;;4.97;;
37239;SDS011;23130;48.760;9.178;2022-07-22T14:04:17;6.53;;;5.05;;
37239;SDS011;23130;48.760;9.178;2022-07-22T14:06:42;5.75;;;5.25;;
37239;SDS011;23130;48.760;9.178;2022-07-22T14:09:08;5.60;;;5.10;;
37239;SDS011;23130;48.760;9.178;2022-07-22T14:11:33;9.40;;;5.30;;
37239;SDS011;23130;48.760;9.178;2022-07-22T14:13:59;5.78;;;5.05;;
37239;SDS011;23130;48.760;9.178;2022-07-22T14:16:25;5.80;;;5.25;;
37239;SDS011;23130;48.760;9.178;2022-07-22T14:21:33;6.28;;;5.55;;
37239;SDS011;23130;48.760;9.178;2022-07-22T14:24:00;8.13;;;5.35;;
37239;SDS011;23130;48.760;9.178;2022-07-22T14:26:27;7.63;;;5.72;;
37239;SDS011;23130;48.760;9.178;2022-07-22T14:28:53;6.68;;;5.45;;
37239;SDS011;23130;48.760;9.178;2022-07-22T14:31:19;6.35;;;5.10;;
37239;SDS011;23130;48.760;9.178;2022-07-22T14:33:45;6.03;;;5.18;;
37239;SDS011;23130;48.760;9.178;2022-07-22T14:36:11;6.72;;;5.18;;
37239;SDS011;23130;48.760;9.178;2022-07-22T14:38:37;8.02;;;5.38;;
37239;SDS011;23130;48.760;9.178;2022-07-22T14:41:02;6.20;;;5.60;;
37239;SDS011;23130;48.760;9.178;2022-07-22T14:43:28;6.35;;;5.35;;
37239;SDS011;23130;48.760;9.178;2022-07-22T14:45:54;6.13;;;5.35;;
37239;SDS011;23130;48.760;9.178;2022-07-22T14:48:20;6.00;;;5.32;;
37239;SDS011;23130;48.760;9.178;2022-07-22T14:50:45;7.03;;;5.45;;
37239;SDS011;23130;48.760;9.178;2022-07-22T14:53:11;6.18;;;5.68;;
37239;SDS011;23130;48.760;9.178;2022-07-22T14:55:37;6.15;;;5.53;;
37239;SDS011;23130;48.760;9.178;2022-07-22T14:58:03;8.77;;;7.93;;
37239;SDS011;23130;48.760;9.178;2022-07-22T15:00:29;6.47;;;5.75;;
37239;SDS011;23130;48.760;9.178;2022-07-22T15:02:54;6.30;;;5.68;;
37239;SDS011;23130;48.760;9.178;2022-07-22T15:05:20;5.63;;;5.13;;
37239;SDS011;23130;48.760;9.178;2022-07-22T15:07:45;7.10;;;5.88;;